createdAt,value
2019-04-07T00:01:40.083Z,19.35
2019-04-07T00:04:09.552Z,18.50
2019-04-07T00:06:39.438Z,19.92
2019-04-07T00:09:09.723Z,19.80
2019-04-07T00:11:39.635Z,20.50
2019-04-07T00:14:09.170Z,19.10
2019-04-07T00:16:40.008Z,20.17
2019-04-07T00:19:09.850Z,20.30
2019-04-07T00:21:39.612Z,19.17
2019-04-07T00:24:09.226Z,20.72
2019-04-07T00:26:39.381Z,19.70
2019-04-07T00:29:09.719Z,20.00
2019-04-07T00:31:39.834Z,18.60
2019-04-07T00:34:09.639Z,18.05
2019-04-07T00:36:39.674Z,20.80
2019-04-07T00:39:09.485Z,19.67
2019-04-07T00:41:38.987Z,20.15
2019-04-07T00:44:08.398Z,19.90
2019-04-07T00:46:37.807Z,19.65
2019-04-07T00:49:07.442Z,19.12
2019-04-07T00:51:37.399Z,19.32
2019-04-07T00:54:13.916Z,19.62
2019-04-07T00:56:43.950Z,20.75
2019-04-07T00:59:27.127Z,20.20
2019-04-07T01:01:56.768Z,20.85
2019-04-07T01:04:26.512Z,21.33
2019-04-07T01:06:56.162Z,20.92
2019-04-07T01:09:26.520Z,22.70
2019-04-07T01:11:55.921Z,21.85
2019-04-07T01:14:25.606Z,22.50
2019-04-07T01:16:56.187Z,20.45
2019-04-07T01:19:25.696Z,20.05
2019-04-07T01:21:55.729Z,20.82
2019-04-07T01:24:25.341Z,20.92
2019-04-07T01:26:55.841Z,19.48
2019-04-07T01:29:25.530Z,20.12
2019-04-07T01:31:55.014Z,20.97
2019-04-07T01:34:25.004Z,20.00
2019-04-07T01:36:54.596Z,19.60
2019-04-07T01:39:25.665Z,20.30
2019-04-07T01:41:57.138Z,19.05
2019-04-07T01:44:28.401Z,19.98
2019-04-07T01:47:05.643Z,18.90
2019-04-07T01:49:46.569Z,18.20
2019-04-07T01:52:21.071Z,18.98
2019-04-07T01:55:10.115Z,20.25
2019-04-07T01:57:57.507Z,20.65
2019-04-07T02:00:31.658Z,19.00
2019-04-07T02:03:03.380Z,19.45
2019-04-07T02:05:58.694Z,18.25
2019-04-07T02:08:40.248Z,18.73
2019-04-07T02:11:21.134Z,18.55
2019-04-07T02:14:08.674Z,18.67
2019-04-07T02:16:51.560Z,20.70
2019-04-07T02:19:26.284Z,18.37
2019-04-07T02:21:58.270Z,19.35
2019-04-07T02:24:38.947Z,18.23
2019-04-07T02:27:10.671Z,19.07
2019-04-07T02:29:51.197Z,18.73
2019-04-07T02:32:37.926Z,18.70
2019-04-07T02:35:12.248Z,18.20
2019-04-07T02:37:44.503Z,18.70
2019-04-07T02:40:31.171Z,19.00
2019-04-07T02:43:11.349Z,18.50
2019-04-07T02:45:47.551Z,19.07
2019-04-07T02:48:25.233Z,17.25
2019-04-07T02:51:01.208Z,17.87
2019-04-07T02:53:53.130Z,18.52
2019-04-07T02:56:30.245Z,18.35
2019-04-07T02:59:01.474Z,18.67
2019-04-07T03:01:35.502Z,17.57
2019-04-07T03:04:09.605Z,17.98
2019-04-07T03:06:57.207Z,18.57
2019-04-07T03:09:34.897Z,17.35
2019-04-07T03:12:21.278Z,18.20
2019-04-07T03:15:02.814Z,18.25
2019-04-07T03:17:37.615Z,17.90
2019-04-07T03:20:12.240Z,16.80
2019-04-07T03:23:00.206Z,17.15
2019-04-07T03:25:40.155Z,18.00
2019-04-07T03:28:11.807Z,17.35
2019-04-07T03:30:54.714Z,16.52
2019-04-07T03:33:30.047Z,16.15
2019-04-07T03:36:06.077Z,16.75
2019-04-07T03:38:53.661Z,18.98
2019-04-07T03:41:33.923Z,17.32
2019-04-07T03:44:06.067Z,17.95
2019-04-07T03:46:55.194Z,18.12
2019-04-07T03:49:27.336Z,17.30
2019-04-07T03:52:14.809Z,17.05
2019-04-07T03:54:48.838Z,16.97
2019-04-07T03:57:19.882Z,18.05
2019-04-07T03:59:57.682Z,16.80
2019-04-07T04:02:42.381Z,16.95
2019-04-07T04:05:19.172Z,19.02
2019-04-07T04:07:50.199Z,16.73
2019-04-07T04:10:21.282Z,16.10
2019-04-07T04:12:55.166Z,16.30
2019-04-07T04:15:26.400Z,17.27
2019-04-07T04:18:16.119Z,16.95
2019-04-07T04:20:46.368Z,18.62
2019-04-07T04:23:15.861Z,16.20
2019-04-07T04:25:45.690Z,17.07
2019-04-07T04:28:16.092Z,17.62
2019-04-07T04:30:45.908Z,17.23
2019-04-07T04:33:15.908Z,17.90
2019-04-07T04:35:46.075Z,16.85
2019-04-07T04:38:15.822Z,16.67
2019-04-07T04:40:45.942Z,16.27
2019-04-07T04:43:15.590Z,16.20
2019-04-07T04:45:46.127Z,16.73
2019-04-07T04:48:15.724Z,17.25
2019-04-07T04:50:47.085Z,17.32
2019-04-07T04:53:17.130Z,17.80
2019-04-07T04:55:47.202Z,16.82
2019-04-07T04:58:17.495Z,16.97
2019-04-07T05:00:48.441Z,16.67
2019-04-07T05:03:19.462Z,17.02
2019-04-07T05:05:49.008Z,17.67
2019-04-07T05:08:18.407Z,17.75
2019-04-07T05:10:48.260Z,16.90
2019-04-07T05:13:18.048Z,16.40
2019-04-07T05:15:47.840Z,17.12
2019-04-07T05:18:17.941Z,16.87
2019-04-07T05:20:47.687Z,16.17
2019-04-07T05:23:18.010Z,17.27
2019-04-07T05:25:48.132Z,17.17
2019-04-07T05:28:17.675Z,17.25
2019-04-07T05:30:47.981Z,16.45
2019-04-07T05:33:17.564Z,16.85
2019-04-07T05:35:46.963Z,15.83
2019-04-07T05:38:16.378Z,17.90
2019-04-07T05:40:46.291Z,17.17
2019-04-07T05:43:16.133Z,17.02
2019-04-07T05:45:46.236Z,15.88
2019-04-07T05:48:18.529Z,16.48
2019-04-07T05:50:47.296Z,16.73
2019-04-07T05:53:31.231Z,14.95
2019-04-07T05:56:01.075Z,16.52
2019-04-07T05:58:30.597Z,18.15
2019-04-07T06:01:00.253Z,17.73
2019-04-07T06:03:29.830Z,17.05
2019-04-07T06:05:59.367Z,18.85
2019-04-07T06:08:35.577Z,18.55
2019-04-07T06:11:01.583Z,17.42
2019-04-07T06:13:31.288Z,19.25
2019-04-07T06:16:01.024Z,17.75
2019-04-07T06:18:33.844Z,18.00
2019-04-07T06:21:01.588Z,17.75
2019-04-07T06:23:31.421Z,18.67
2019-04-07T06:26:00.883Z,17.98
2019-04-07T06:28:30.358Z,18.55
2019-04-07T06:31:01.351Z,17.73
2019-04-07T06:33:31.953Z,17.70
2019-04-07T06:36:01.524Z,17.57
2019-04-07T06:38:34.580Z,17.98
2019-04-07T06:41:03.082Z,16.62
2019-04-07T06:43:36.631Z,17.27
2019-04-07T06:46:09.341Z,18.05
2019-04-07T06:48:41.240Z,16.97
2019-04-07T06:51:12.599Z,18.87
2019-04-07T06:53:52.449Z,18.40
2019-04-07T06:56:35.662Z,18.15
2019-04-07T06:59:13.917Z,17.73
2019-04-07T07:01:42.799Z,17.95
2019-04-07T07:04:30.143Z,18.00
2019-04-07T07:07:06.108Z,17.95
2019-04-07T07:09:54.815Z,16.73
2019-04-07T07:12:32.832Z,17.52
2019-04-07T07:15:00.937Z,18.80
2019-04-07T07:17:38.267Z,19.42
2019-04-07T07:20:15.693Z,20.23
2019-04-07T07:22:56.154Z,18.80
2019-04-07T07:25:28.581Z,18.92
2019-04-07T07:27:57.061Z,19.30
2019-04-07T07:30:27.331Z,21.35
2019-04-07T07:32:56.866Z,25.30
2019-04-07T07:35:27.206Z,25.52
2019-04-07T07:37:59.442Z,28.00
2019-04-07T07:40:27.841Z,30.15
2019-04-07T07:42:59.098Z,33.70
2019-04-07T07:45:28.390Z,32.28
2019-04-07T07:47:57.824Z,34.10
2019-04-07T07:50:28.373Z,31.77
2019-04-07T07:52:58.267Z,36.03
2019-04-07T07:55:33.847Z,35.38
2019-04-07T07:58:00.997Z,35.78
2019-04-07T08:00:30.952Z,37.23
2019-04-07T08:03:00.444Z,35.40
2019-04-07T08:05:33.340Z,37.75
2019-04-07T08:08:01.756Z,34.53
2019-04-07T08:10:31.287Z,36.75
2019-04-07T08:13:05.110Z,41.02
2019-04-07T08:15:33.330Z,43.45
2019-04-07T08:18:06.980Z,42.23
2019-04-07T08:20:34.867Z,41.30
2019-04-07T08:23:04.718Z,41.68
2019-04-07T08:25:34.811Z,41.90
2019-04-07T08:28:04.687Z,41.75
2019-04-07T08:30:34.293Z,41.90
2019-04-07T08:33:03.821Z,42.30
2019-04-07T08:35:37.675Z,40.00
2019-04-07T08:38:04.634Z,44.30
2019-04-07T08:40:36.538Z,42.88
2019-04-07T08:43:21.191Z,43.68
2019-04-07T08:45:51.428Z,44.55
2019-04-07T08:48:21.595Z,45.05
2019-04-07T08:50:51.805Z,43.95
2019-04-07T08:53:21.593Z,42.10
2019-04-07T08:55:54.250Z,43.23
2019-04-07T08:58:27.174Z,44.70
2019-04-07T09:00:55.147Z,43.80
2019-04-07T09:03:24.631Z,43.17
2019-04-07T09:05:56.484Z,45.40
2019-04-07T09:08:26.054Z,43.58
2019-04-07T09:11:00.456Z,45.20
2019-04-07T09:13:33.118Z,44.20
2019-04-07T09:16:20.753Z,45.83
2019-04-07T09:19:01.789Z,47.65
2019-04-07T09:21:49.503Z,47.98
2019-04-07T09:24:32.746Z,45.70
2019-04-07T09:27:11.317Z,46.58
2019-04-07T09:29:46.053Z,52.70
2019-04-07T09:32:23.730Z,50.10
2019-04-07T09:34:56.123Z,51.83
2019-04-07T09:37:36.704Z,49.27
2019-04-07T09:40:18.553Z,45.70
2019-04-07T09:42:59.249Z,46.42
2019-04-07T09:45:44.774Z,47.03
2019-04-07T09:48:25.518Z,47.65
2019-04-07T09:51:04.155Z,45.92
2019-04-07T09:53:50.250Z,47.43
2019-04-07T09:56:29.919Z,49.03
2019-04-07T09:59:19.074Z,49.55
2019-04-07T10:02:08.214Z,43.78
2019-04-07T10:04:42.598Z,41.77
2019-04-07T10:07:30.509Z,40.98
2019-04-07T10:10:10.779Z,42.60
2019-04-07T10:12:46.454Z,44.25
2019-04-07T10:15:18.788Z,45.55
2019-04-07T10:18:02.065Z,43.52
2019-04-07T10:20:49.161Z,43.92
2019-04-07T10:23:23.226Z,47.15
2019-04-07T10:25:57.683Z,47.15
2019-04-07T10:28:46.166Z,44.30
2019-04-07T10:31:23.569Z,48.30
2019-04-07T10:33:54.736Z,48.63
2019-04-07T10:36:42.501Z,49.27
2019-04-07T10:39:14.259Z,47.15
2019-04-07T10:41:48.290Z,49.42
2019-04-07T10:44:26.399Z,48.87
2019-04-07T10:47:13.873Z,48.52
2019-04-07T10:50:06.199Z,45.78
2019-04-07T10:52:45.963Z,48.17
2019-04-07T10:55:20.635Z,49.38
2019-04-07T10:58:00.771Z,47.43
2019-04-07T11:00:50.985Z,47.93
2019-04-07T11:03:34.179Z,48.65
2019-04-07T11:06:14.882Z,47.60
2019-04-07T11:08:55.986Z,48.87
2019-04-07T11:11:47.866Z,49.60
2019-04-07T11:14:18.457Z,51.60
2019-04-07T11:17:06.537Z,48.90
2019-04-07T11:19:38.692Z,49.08
2019-04-07T11:22:26.609Z,51.23
2019-04-07T11:25:16.987Z,47.23
2019-04-07T11:27:48.447Z,50.65
2019-04-07T11:30:19.699Z,54.03
2019-04-07T11:32:50.744Z,48.23
2019-04-07T11:35:22.211Z,52.98
2019-04-07T11:37:55.852Z,54.58
2019-04-07T11:40:27.162Z,53.48
2019-04-07T11:42:58.970Z,53.23
2019-04-07T11:45:58.422Z,51.25
2019-04-07T11:48:37.052Z,47.65
2019-04-07T11:54:08.703Z,51.95
2019-04-07T11:56:40.174Z,49.48
2019-04-07T11:59:21.943Z,52.48
2019-04-07T12:01:53.144Z,54.27
2019-04-07T12:04:24.935Z,50.20
2019-04-07T12:07:03.551Z,51.83
2019-04-07T12:09:51.027Z,51.65
2019-04-07T12:12:31.110Z,53.52
2019-04-07T12:15:23.643Z,53.33
2019-04-07T12:17:59.154Z,54.23
2019-04-07T12:20:43.971Z,54.45
2019-04-07T12:23:23.395Z,55.38
2019-04-07T12:26:10.146Z,54.88
2019-04-07T12:28:41.253Z,54.55
2019-04-07T12:31:18.553Z,52.58
2019-04-07T12:33:52.786Z,52.08
2019-04-07T12:36:40.823Z,53.17
2019-04-07T12:39:17.326Z,51.53
2019-04-07T12:41:51.094Z,49.53
2019-04-07T12:44:25.407Z,53.17
2019-04-07T12:46:59.179Z,51.40
2019-04-07T12:49:46.957Z,51.25
2019-04-07T12:52:20.712Z,50.38
2019-04-07T12:55:08.334Z,53.95
2019-04-07T12:57:39.888Z,48.80
2019-04-07T13:00:29.745Z,50.17
2019-04-07T13:03:10.411Z,51.70
2019-04-07T13:05:50.917Z,53.25
2019-04-07T13:08:24.687Z,58.68
2019-04-07T13:10:59.124Z,54.08
2019-04-07T13:13:32.752Z,54.73
2019-04-07T13:19:19.895Z,52.83
2019-04-07T13:21:53.329Z,52.17
2019-04-07T13:24:31.800Z,50.03
2019-04-07T13:27:04.004Z,49.85
2019-04-07T13:29:40.121Z,47.70
2019-04-07T13:32:19.411Z,49.15
2019-04-07T13:34:56.302Z,48.28
2019-04-07T13:37:30.950Z,47.35
2019-04-07T13:40:02.142Z,45.88
2019-04-07T13:42:36.753Z,47.65
2019-04-07T13:45:15.583Z,53.45
2019-04-07T13:50:41.833Z,87.85
2019-04-07T13:53:31.835Z,76.57
2019-04-07T13:56:18.673Z,77.12
2019-04-07T13:59:06.614Z,70.57
2019-04-07T14:01:38.412Z,72.87
2019-04-07T14:04:25.158Z,68.45
2019-04-07T14:07:13.171Z,69.70
2019-04-07T14:09:50.697Z,71.40
2019-04-07T14:12:24.893Z,76.10
2019-04-07T14:15:05.206Z,73.92
2019-04-07T14:17:43.775Z,67.97
2019-04-07T14:20:16.068Z,77.25
2019-04-07T14:22:50.525Z,77.12
2019-04-07T14:25:33.492Z,68.20
2019-04-07T14:28:07.866Z,104.92
2019-04-07T14:30:47.823Z,99.72
2019-04-07T14:36:29.990Z,122.67
2019-04-07T14:39:07.264Z,95.55
2019-04-07T14:41:40.127Z,87.10
2019-04-07T14:44:12.881Z,71.42
2019-04-07T14:46:50.169Z,70.25
2019-04-07T14:49:21.328Z,67.35
2019-04-07T14:52:10.961Z,68.20
2019-04-07T14:54:44.847Z,66.50
2019-04-07T14:57:16.901Z,67.53
2019-04-07T15:00:05.249Z,66.15
2019-04-07T15:02:35.433Z,64.95
2019-04-07T15:05:23.240Z,64.07
2019-04-07T15:07:52.721Z,62.78
2019-04-07T15:10:24.440Z,63.13
2019-04-07T15:12:55.777Z,62.53
2019-04-07T15:15:26.792Z,65.75
2019-04-07T15:17:56.366Z,65.17
2019-04-07T15:20:25.779Z,68.35
2019-04-07T15:22:58.352Z,62.58
2019-04-07T15:25:27.695Z,63.23
2019-04-07T15:27:58.907Z,63.23
2019-04-07T15:30:28.498Z,62.98
2019-04-07T15:33:01.017Z,68.47
2019-04-07T15:35:50.192Z,64.35
2019-04-07T15:38:23.770Z,72.67
2019-04-07T15:40:51.732Z,72.80
2019-04-07T15:43:22.244Z,70.67
2019-04-07T15:45:52.225Z,71.37
2019-04-07T15:48:25.836Z,70.10
2019-04-07T15:50:54.746Z,68.50
2019-04-07T15:53:24.509Z,72.85
2019-04-07T15:56:02.062Z,70.85
2019-04-07T15:58:27.641Z,66.05
2019-04-07T16:00:57.474Z,66.95
2019-04-07T16:03:27.715Z,66.72
2019-04-07T16:05:59.105Z,63.15
2019-04-07T16:08:29.986Z,65.83
2019-04-07T16:11:00.624Z,64.75
2019-04-07T16:13:30.401Z,70.08
2019-04-07T16:15:59.942Z,72.30
2019-04-07T16:18:29.347Z,71.33
2019-04-07T16:20:58.762Z,65.70
2019-04-07T16:23:28.350Z,65.90
2019-04-07T16:25:59.233Z,68.67
2019-04-07T16:28:29.601Z,66.00
2019-04-07T16:30:59.275Z,64.80
2019-04-07T16:33:32.525Z,67.72
2019-04-07T16:36:00.060Z,66.15
2019-04-07T16:38:30.362Z,70.70
2019-04-07T16:41:01.612Z,68.37
2019-04-07T16:43:33.788Z,64.82
2019-04-07T16:46:02.307Z,65.17
2019-04-07T16:48:35.924Z,67.00
2019-04-07T16:51:26.398Z,63.52
2019-04-07T16:53:54.222Z,65.72
2019-04-07T16:56:23.757Z,64.55
2019-04-07T16:58:53.476Z,61.68
2019-04-07T17:01:25.383Z,60.88
2019-04-07T17:03:55.425Z,59.93
2019-04-07T17:06:27.763Z,58.65
2019-04-07T17:08:56.473Z,58.28
2019-04-07T17:11:25.977Z,58.35
2019-04-07T17:13:55.891Z,55.05
2019-04-07T17:16:25.428Z,54.80
2019-04-07T17:18:56.163Z,57.35
2019-04-07T17:21:26.658Z,51.53
2019-04-07T17:23:56.903Z,54.10
2019-04-07T17:26:26.470Z,50.43
2019-04-07T17:28:57.394Z,50.70
2019-04-07T17:31:29.901Z,48.75
2019-04-07T17:33:58.639Z,48.92
2019-04-07T17:36:28.245Z,46.98
2019-04-07T17:39:09.623Z,46.35
2019-04-07T17:41:39.353Z,47.83
2019-04-07T17:44:24.492Z,45.58
2019-04-07T17:46:58.896Z,45.10
2019-04-07T17:49:39.330Z,45.78
2019-04-07T17:52:11.203Z,44.03
2019-04-07T17:54:54.027Z,42.33
2019-04-07T17:57:34.860Z,42.43
2019-04-07T18:00:16.494Z,42.13
2019-04-07T18:02:53.608Z,41.77
2019-04-07T18:05:27.950Z,42.17
2019-04-07T18:08:15.828Z,42.00
2019-04-07T18:10:50.746Z,46.08
2019-04-07T18:13:26.004Z,44.55
2019-04-07T18:15:58.250Z,45.20
2019-04-07T18:18:47.620Z,46.95
2019-04-07T18:21:25.216Z,48.68
2019-04-07T18:24:02.368Z,50.80
2019-04-07T18:26:37.348Z,51.60
2019-04-07T18:29:25.683Z,54.08
2019-04-07T18:32:11.230Z,62.13
2019-04-07T18:35:01.234Z,63.30
2019-04-07T18:37:48.587Z,64.42
2019-04-07T18:40:29.516Z,67.97
2019-04-07T18:43:19.245Z,71.33
2019-04-07T18:46:08.416Z,73.15
2019-04-07T18:48:40.233Z,74.22
2019-04-07T18:51:13.875Z,76.15
2019-04-07T18:54:04.095Z,75.62
2019-04-07T18:56:34.932Z,77.32
2019-04-07T18:59:26.811Z,77.17
2019-04-07T19:02:16.242Z,76.35
2019-04-07T19:04:49.186Z,78.70
2019-04-07T19:07:39.898Z,80.55
2019-04-07T19:10:22.877Z,79.37
2019-04-07T19:13:01.915Z,82.78
2019-04-07T19:15:26.030Z,79.95
2019-04-07T19:18:02.168Z,79.27
2019-04-07T19:20:34.153Z,76.85
2019-04-07T19:23:11.307Z,77.10
2019-04-07T19:25:58.867Z,76.77
2019-04-07T19:28:42.330Z,77.78
2019-04-07T19:31:19.574Z,72.72
2019-04-07T19:33:50.797Z,74.30
2019-04-07T19:36:28.092Z,75.70
2019-04-07T19:39:09.058Z,74.58
2019-04-07T19:41:56.468Z,75.28
2019-04-07T19:44:37.103Z,75.20
2019-04-07T19:47:03.161Z,74.20
2019-04-07T19:49:36.803Z,76.77
2019-04-07T19:52:09.334Z,74.45
2019-04-07T19:54:52.936Z,72.10
2019-04-07T19:57:24.045Z,75.57
2019-04-07T19:59:57.944Z,75.50
2019-04-07T20:02:45.513Z,75.67
2019-04-07T20:05:23.333Z,76.57
2019-04-07T20:07:59.333Z,74.22
2019-04-07T20:10:32.622Z,77.37
2019-04-07T20:13:09.513Z,76.20
2019-04-07T20:15:58.064Z,79.53
2019-04-07T20:18:46.018Z,78.35
2019-04-07T20:21:39.056Z,82.12
2019-04-07T20:24:21.768Z,76.75
2019-04-07T20:27:09.456Z,80.28
2019-04-07T20:29:43.756Z,78.00
2019-04-07T20:32:25.196Z,77.03
2019-04-07T20:35:12.299Z,79.95
2019-04-07T20:37:58.346Z,81.25
2019-04-07T20:40:45.572Z,80.47
2019-04-07T20:43:23.569Z,79.97
2019-04-07T20:46:06.905Z,79.30
2019-04-07T20:48:41.585Z,78.92
2019-04-07T20:51:29.602Z,78.10
2019-04-07T20:54:06.387Z,79.07
2019-04-07T20:56:49.896Z,81.15
2019-04-07T20:59:25.315Z,81.63
2019-04-07T21:02:08.628Z,82.62
2019-04-07T21:04:53.081Z,83.17
2019-04-07T21:07:35.479Z,81.50
2019-04-07T21:10:11.237Z,84.25
2019-04-07T21:12:47.062Z,83.12
2019-04-07T21:15:30.969Z,84.13
2019-04-07T21:18:11.008Z,84.80
2019-04-07T21:20:44.644Z,85.15
2019-04-07T21:23:19.525Z,86.30
2019-04-07T21:26:07.957Z,85.15
2019-04-07T21:28:48.345Z,86.97
2019-04-07T21:31:22.613Z,85.22
2019-04-07T21:34:10.300Z,86.25
2019-04-07T21:36:41.777Z,83.10
2019-04-07T21:39:21.660Z,85.22
2019-04-07T21:42:00.315Z,83.45
2019-04-07T21:44:40.071Z,79.53
2019-04-07T21:47:20.443Z,82.22
2019-04-07T21:49:54.178Z,82.80
2019-04-07T21:52:28.163Z,83.30
2019-04-07T21:55:01.891Z,89.17
2019-04-07T21:57:36.476Z,84.80
2019-04-07T22:00:27.048Z,87.42
2019-04-07T22:03:17.061Z,87.27
2019-04-07T22:05:54.523Z,91.65
2019-04-07T22:08:25.275Z,87.33
2019-04-07T22:10:55.384Z,90.80
2019-04-07T22:13:25.833Z,91.45
2019-04-07T22:15:59.323Z,86.80
2019-04-07T22:18:26.823Z,86.72
2019-04-07T22:20:57.045Z,88.65
2019-04-07T22:23:29.592Z,86.32
2019-04-07T22:25:57.874Z,88.33
2019-04-07T22:28:28.494Z,86.47
2019-04-07T22:30:59.162Z,88.17
2019-04-07T22:33:31.484Z,91.35
2019-04-07T22:36:00.244Z,85.65
2019-04-07T22:38:31.520Z,92.90
2019-04-07T22:41:01.095Z,89.95
2019-04-07T22:43:30.503Z,90.53
2019-04-07T22:46:07.709Z,93.40
2019-04-07T22:48:31.087Z,92.10
2019-04-07T22:51:02.832Z,91.00
2019-04-07T22:53:31.734Z,88.80
2019-04-07T22:56:04.789Z,91.90
2019-04-07T22:58:32.247Z,89.00
2019-04-07T23:01:02.683Z,93.62
2019-04-07T23:03:32.503Z,89.28
2019-04-07T23:06:02.010Z,88.90
2019-04-07T23:08:31.406Z,92.08
2019-04-07T23:11:15.047Z,88.72
2019-04-07T23:13:45.134Z,86.22
2019-04-07T23:16:17.183Z,85.65
2019-04-07T23:18:46.495Z,87.67
2019-04-07T23:21:17.157Z,85.42
2019-04-07T23:23:46.787Z,86.32
2019-04-07T23:26:16.193Z,88.17
2019-04-07T23:28:47.218Z,85.95
2019-04-07T23:31:16.989Z,87.15
2019-04-07T23:33:46.450Z,87.92
2019-04-07T23:36:15.967Z,87.85
2019-04-07T23:38:45.393Z,84.42
2019-04-07T23:41:15.911Z,87.15
2019-04-07T23:43:45.977Z,84.30
2019-04-07T23:46:22.873Z,84.22
2019-04-07T23:48:47.728Z,86.35
2019-04-07T23:51:17.111Z,89.00
2019-04-07T23:54:11.329Z,86.15
2019-04-07T23:56:41.895Z,85.32
2019-04-07T23:59:12.129Z,85.40
